createdAt,value
2018-09-10T00:02:15.079Z,29.68
2018-09-10T00:04:46.810Z,29.67
2018-09-10T00:07:18.747Z,29.68
2018-09-10T00:09:50.755Z,29.67
2018-09-10T00:12:22.163Z,29.64
2018-09-10T00:14:54.097Z,29.63
2018-09-10T00:17:25.735Z,29.63
2018-09-10T00:19:57.723Z,29.63
2018-09-10T00:22:29.220Z,29.61
2018-09-10T00:25:01.471Z,29.62
2018-09-10T00:27:33.177Z,29.61
2018-09-10T00:30:05.152Z,29.61
2018-09-10T00:32:36.806Z,29.61
2018-09-10T00:35:08.551Z,29.63
2018-09-10T00:37:40.404Z,29.62
2018-09-10T00:40:12.282Z,29.61
2018-09-10T00:42:43.890Z,29.59
2018-09-10T00:45:15.727Z,29.60
2018-09-10T00:47:47.347Z,29.58
2018-09-10T00:50:19.026Z,29.57
2018-09-10T00:52:50.786Z,29.57
2018-09-10T00:55:22.628Z,29.57
2018-09-10T00:57:54.271Z,29.57
2018-09-10T01:00:26.043Z,29.57
2018-09-10T01:02:58.574Z,29.56
2018-09-10T01:05:30.481Z,29.57
2018-09-10T01:08:01.974Z,29.56
2018-09-10T01:10:33.845Z,29.56
2018-09-10T01:13:05.584Z,29.54
2018-09-10T01:15:37.600Z,29.56
2018-09-10T01:18:09.509Z,29.56
2018-09-10T01:20:41.458Z,29.55
2018-09-10T01:23:13.248Z,29.56
2018-09-10T01:25:45.448Z,29.53
2018-09-10T01:28:17.092Z,29.54
2018-09-10T01:30:48.780Z,29.53
2018-09-10T01:34:49.220Z,29.52
2018-09-10T01:37:21.237Z,29.53
2018-09-10T01:39:52.838Z,29.52
2018-09-10T01:42:24.563Z,29.52
2018-09-10T01:44:56.117Z,29.52
2018-09-10T01:47:28.020Z,29.52
2018-09-10T01:49:59.713Z,29.52
2018-09-10T01:52:31.649Z,29.53
2018-09-10T01:55:03.178Z,29.49
2018-09-10T01:57:35.021Z,29.51
2018-09-10T02:00:06.888Z,29.53
2018-09-10T02:02:38.614Z,29.40
2018-09-10T02:05:10.348Z,29.33
2018-09-10T02:07:42.193Z,29.32
2018-09-10T02:10:13.863Z,29.34
2018-09-10T02:12:45.679Z,29.32
2018-09-10T02:15:17.100Z,29.27
2018-09-10T02:17:48.860Z,29.29
2018-09-10T02:20:21.586Z,28.84
2018-09-10T02:22:53.499Z,28.85
2018-09-10T02:25:25.132Z,28.82
2018-09-10T02:27:56.962Z,28.51
2018-09-10T02:30:28.659Z,28.79
2018-09-10T02:33:00.444Z,28.97
2018-09-10T02:35:32.044Z,29.04
2018-09-10T02:38:04.172Z,29.05
2018-09-10T02:40:35.821Z,29.05
2018-09-10T02:43:07.667Z,29.11
2018-09-10T02:45:39.334Z,29.08
2018-09-10T02:48:10.950Z,29.13
2018-09-10T02:50:42.693Z,29.10
2018-09-10T02:53:14.480Z,29.09
2018-09-10T02:55:45.980Z,29.04
2018-09-10T02:58:18.143Z,29.01
2018-09-10T03:00:49.994Z,29.08
2018-09-10T03:03:22.125Z,29.10
2018-09-10T03:05:54.756Z,29.15
2018-09-10T03:08:26.759Z,29.19
2018-09-10T03:10:58.484Z,29.19
2018-09-10T03:13:30.271Z,29.02
2018-09-10T03:16:01.964Z,29.07
2018-09-10T03:18:33.647Z,29.10
2018-09-10T03:21:06.151Z,29.12
2018-09-10T03:23:37.956Z,29.15
2018-09-10T03:26:10.492Z,29.15
2018-09-10T03:28:42.347Z,29.09
2018-09-10T03:31:13.732Z,28.90
2018-09-10T03:33:45.225Z,29.08
2018-09-10T03:36:16.999Z,29.08
2018-09-10T03:38:48.618Z,28.98
2018-09-10T03:41:20.285Z,29.04
2018-09-10T03:43:52.073Z,29.05
2018-09-10T03:46:23.786Z,29.15
2018-09-10T03:48:55.630Z,29.01
2018-09-10T03:51:27.309Z,28.82
2018-09-10T03:53:59.191Z,28.94
2018-09-10T03:56:30.907Z,28.89
2018-09-10T03:59:02.659Z,28.90
2018-09-10T04:01:34.580Z,28.95
2018-09-10T04:04:06.366Z,28.81
2018-09-10T04:06:38.127Z,28.78
2018-09-10T04:09:10.649Z,28.83
2018-09-10T04:11:42.343Z,28.99
2018-09-10T04:14:14.439Z,29.07
2018-09-10T04:16:45.877Z,29.12
2018-09-10T04:19:17.920Z,29.16
2018-09-10T04:21:49.734Z,29.16
2018-09-10T04:24:21.555Z,28.99
2018-09-10T04:26:53.187Z,29.01
2018-09-10T04:29:25.017Z,29.07
2018-09-10T04:31:56.661Z,29.12
2018-09-10T04:34:28.489Z,29.20
2018-09-10T04:37:00.155Z,29.23
2018-09-10T04:39:32.008Z,29.25
2018-09-10T04:42:05.569Z,29.22
2018-09-10T04:44:37.428Z,29.13
2018-09-10T04:47:10.001Z,29.15
2018-09-10T04:49:41.896Z,29.20
2018-09-10T04:52:13.387Z,29.27
2018-09-10T04:54:45.402Z,29.22
2018-09-10T04:57:17.092Z,29.18
2018-09-10T04:59:48.965Z,29.22
2018-09-10T05:02:20.793Z,29.31
2018-09-10T05:04:52.363Z,29.22
2018-09-10T05:07:24.090Z,29.29
2018-09-10T05:09:55.838Z,29.33
2018-09-10T05:12:27.654Z,29.32
2018-09-10T05:14:59.533Z,29.32
2018-09-10T05:17:31.171Z,29.15
2018-09-10T05:20:03.353Z,29.23
2018-09-10T05:22:35.183Z,29.27
2018-09-10T05:25:07.048Z,29.30
2018-09-10T05:27:38.634Z,29.30
2018-09-10T05:30:10.403Z,29.28
2018-09-10T05:32:41.969Z,29.25
2018-09-10T05:35:14.467Z,29.22
2018-09-10T05:37:46.254Z,29.21
2018-09-10T05:40:18.162Z,29.19
2018-09-10T05:42:50.086Z,29.20
2018-09-10T05:45:22.079Z,29.22
2018-09-10T05:47:53.712Z,29.27
2018-09-10T05:50:25.890Z,29.29
2018-09-10T05:52:57.879Z,29.24
2018-09-10T05:55:29.759Z,29.25
2018-09-10T05:58:01.653Z,29.19
2018-09-10T06:00:35.410Z,29.12
2018-09-10T06:03:07.284Z,29.19
2018-09-10T06:05:39.729Z,29.24
2018-09-10T06:08:12.230Z,29.29
2018-09-10T06:10:44.227Z,29.20
2018-09-10T06:13:15.986Z,29.21
2018-09-10T06:15:48.054Z,29.28
2018-09-10T06:18:20.050Z,29.33
2018-09-10T06:20:51.809Z,29.34
2018-09-10T06:23:23.741Z,29.31
2018-09-10T06:25:55.355Z,29.32
2018-09-10T06:28:27.440Z,29.39
2018-09-10T06:30:59.317Z,29.42
2018-09-10T06:33:32.274Z,29.41
2018-09-10T06:36:04.030Z,29.46
2018-09-10T06:38:44.354Z,29.50
2018-09-10T06:44:32.268Z,29.45
2018-09-10T06:47:20.188Z,29.50
2018-09-10T06:50:08.532Z,29.55
2018-09-10T06:52:45.764Z,29.58
2018-09-10T06:55:20.491Z,29.59
2018-09-10T06:57:57.378Z,29.61
2018-09-10T07:00:41.666Z,29.64
2018-09-10T07:03:17.388Z,29.63
2018-09-10T07:06:01.649Z,29.66
2018-09-10T07:08:52.272Z,29.68
2018-09-10T07:11:36.529Z,29.69
2018-09-10T07:14:13.255Z,29.69
2018-09-10T07:17:07.513Z,29.71
2018-09-10T07:19:49.824Z,29.72
2018-09-10T07:22:29.342Z,29.64
2018-09-10T07:25:27.094Z,29.65
2018-09-10T07:27:58.973Z,29.70
2018-09-10T07:30:30.679Z,29.72
2018-09-10T07:33:02.637Z,29.73
2018-09-10T07:35:34.759Z,29.74
2018-09-10T07:38:06.778Z,29.73
2018-09-10T07:40:38.550Z,29.69
2018-09-10T07:43:10.297Z,29.71
2018-09-10T07:45:42.345Z,29.73
2018-09-10T07:48:14.004Z,29.73
2018-09-10T07:50:45.989Z,29.75
2018-09-10T07:53:17.834Z,29.73
2018-09-10T07:55:51.218Z,29.73
2018-09-10T07:58:23.741Z,29.73
2018-09-10T08:00:57.391Z,29.74
2018-09-10T08:03:29.393Z,29.72
2018-09-10T08:06:02.177Z,29.74
2018-09-10T08:08:34.756Z,29.74
2018-09-10T08:11:07.796Z,29.74
2018-09-10T08:13:41.011Z,29.74
2018-09-10T08:16:13.142Z,29.75
2018-09-10T08:18:44.942Z,29.74
2018-09-10T08:21:16.790Z,29.75
2018-09-10T08:23:49.099Z,29.73
2018-09-10T08:26:20.848Z,29.74
2018-09-10T08:28:52.718Z,29.76
2018-09-10T08:31:24.904Z,29.71
2018-09-10T08:33:57.052Z,29.74
2018-09-10T08:36:32.146Z,29.75
2018-09-10T08:39:04.783Z,29.77
2018-09-10T08:41:36.153Z,29.76
2018-09-10T08:44:08.618Z,29.78
2018-09-10T08:46:40.817Z,29.79
2018-09-10T08:49:12.860Z,29.77
2018-09-10T08:51:44.725Z,29.78
2018-09-10T08:54:17.625Z,29.79
2018-09-10T08:56:50.852Z,29.79
2018-09-10T08:59:24.475Z,29.81
2018-09-10T09:01:56.663Z,29.75
2018-09-10T09:04:28.696Z,29.72
2018-09-10T09:07:00.821Z,29.70
2018-09-10T09:09:32.495Z,29.71
2018-09-10T09:12:04.483Z,29.70
2018-09-10T09:14:36.243Z,29.72
2018-09-10T09:17:08.326Z,29.71
2018-09-10T09:19:40.184Z,29.72
2018-09-10T09:22:12.366Z,29.72
2018-09-10T09:24:44.653Z,29.72
2018-09-10T09:27:17.979Z,29.72
2018-09-10T09:29:51.149Z,29.72
2018-09-10T09:32:23.957Z,29.74
2018-09-10T09:34:56.982Z,29.73
2018-09-10T09:37:33.583Z,29.73
2018-09-10T09:40:10.366Z,29.72
2018-09-10T09:42:48.083Z,29.73
2018-09-10T09:45:25.716Z,29.74
2018-09-10T09:47:58.727Z,29.76
2018-09-10T09:50:31.180Z,29.74
2018-09-10T09:53:03.173Z,29.76
2018-09-10T09:55:35.270Z,29.79
2018-09-10T09:58:07.254Z,29.78
2018-09-10T10:00:43.853Z,29.80
2018-09-10T10:03:19.751Z,29.82
2018-09-10T10:05:52.034Z,29.92
2018-09-10T10:08:23.904Z,30.00
2018-09-10T10:10:55.767Z,30.05
2018-09-10T10:13:27.409Z,30.06
2018-09-10T10:15:59.271Z,30.08
2018-09-10T10:18:31.083Z,30.08
2018-09-10T10:21:03.214Z,30.07
2018-09-10T10:23:35.017Z,30.08
2018-09-10T10:26:07.787Z,30.08
2018-09-10T10:28:39.809Z,30.09
2018-09-10T10:31:12.778Z,30.10
2018-09-10T10:33:52.342Z,30.11
2018-09-10T10:36:24.693Z,30.11
2018-09-10T10:38:56.233Z,30.11
2018-09-10T10:41:28.152Z,30.13
2018-09-10T10:44:00.627Z,30.14
2018-09-10T10:46:33.206Z,30.20
2018-09-10T10:49:05.292Z,30.20
2018-09-10T10:51:36.974Z,30.10
2018-09-10T10:54:08.841Z,30.10
2018-09-10T10:56:41.617Z,30.11
2018-09-10T10:59:14.698Z,30.12
2018-09-10T11:01:47.322Z,30.12
2018-09-10T11:04:18.901Z,30.13
2018-09-10T11:06:51.199Z,30.18
2018-09-10T11:09:23.158Z,30.32
2018-09-10T11:11:55.237Z,30.48
2018-09-10T11:14:27.360Z,30.52
2018-09-10T11:16:59.637Z,30.61
2018-09-10T11:19:31.482Z,30.70
2018-09-10T11:22:03.728Z,30.81
2018-09-10T11:24:36.888Z,30.81
2018-09-10T11:27:08.733Z,30.77
2018-09-10T11:29:40.568Z,30.79
2018-09-10T11:32:12.826Z,30.79
2018-09-10T11:34:44.972Z,30.86
2018-09-10T11:37:16.615Z,30.79
2018-09-10T11:39:48.478Z,30.74
2018-09-10T11:42:20.519Z,30.69
2018-09-10T11:44:52.238Z,30.61
2018-09-10T11:47:24.138Z,30.61
2018-09-10T11:49:55.871Z,30.56
2018-09-10T11:52:27.961Z,30.57
2018-09-10T11:54:59.891Z,30.58
2018-09-10T11:57:32.076Z,30.56
2018-09-10T12:00:03.823Z,30.55
2018-09-10T12:02:35.690Z,30.55
2018-09-10T12:05:07.674Z,30.52
2018-09-10T12:07:39.721Z,30.53
2018-09-10T12:10:11.425Z,30.55
2018-09-10T12:12:43.400Z,30.50
2018-09-10T12:15:15.329Z,30.54
2018-09-10T12:17:47.052Z,30.49
2018-09-10T12:20:18.842Z,30.50
2018-09-10T12:22:50.678Z,30.50
2018-09-10T12:25:22.849Z,30.48
2018-09-10T12:27:54.813Z,30.47
2018-09-10T12:30:26.650Z,30.46
2018-09-10T12:32:58.510Z,30.45
2018-09-10T12:35:30.411Z,30.42
2018-09-10T12:38:02.432Z,30.42
2018-09-10T12:40:34.635Z,30.41
2018-09-10T12:43:06.395Z,30.39
2018-09-10T12:45:38.642Z,30.38
2018-09-10T12:48:11.047Z,30.38
2018-09-10T12:50:43.037Z,30.37
2018-09-10T12:53:15.213Z,30.37
2018-09-10T12:55:46.895Z,30.35
2018-09-10T12:58:18.683Z,30.37
2018-09-10T13:00:52.222Z,30.35
2018-09-10T13:03:24.647Z,30.35
2018-09-10T13:05:56.403Z,30.26
2018-09-10T13:08:28.255Z,30.28
2018-09-10T13:10:59.754Z,30.26
2018-09-10T13:13:31.883Z,30.28
2018-09-10T13:16:04.618Z,30.28
2018-09-10T13:18:36.630Z,30.19
2018-09-10T13:21:08.281Z,30.20
2018-09-10T13:23:41.197Z,30.23
2018-09-10T13:26:14.134Z,30.23
2018-09-10T13:28:47.001Z,30.23
2018-09-10T13:31:18.806Z,30.22
2018-09-10T13:33:50.733Z,30.19
2018-09-10T13:36:23.126Z,30.18
2018-09-10T13:38:55.204Z,30.17
2018-09-10T13:41:27.942Z,30.15
2018-09-10T13:43:59.762Z,30.14
2018-09-10T13:46:31.960Z,30.16
2018-09-10T13:49:04.378Z,30.15
2018-09-10T13:51:36.143Z,30.15
2018-09-10T13:54:08.198Z,30.09
2018-09-10T13:56:41.203Z,30.09
2018-09-10T13:59:13.081Z,30.05
2018-09-10T14:01:45.294Z,29.86
2018-09-10T14:04:17.792Z,29.93
2018-09-10T14:06:49.657Z,29.95
2018-09-10T14:09:22.482Z,29.92
2018-09-10T14:11:54.558Z,29.90
2018-09-10T14:14:26.484Z,29.93
2018-09-10T14:16:58.504Z,29.96
2018-09-10T14:19:30.529Z,29.97
2018-09-10T14:22:02.744Z,29.94
2018-09-10T14:24:34.840Z,30.00
2018-09-10T14:27:06.621Z,30.02
2018-09-10T14:29:39.097Z,29.98
2018-09-10T14:32:11.191Z,29.94
2018-09-10T14:34:43.059Z,29.94
2018-09-10T14:37:15.226Z,29.89
2018-09-10T14:39:47.164Z,29.82
2018-09-10T14:42:19.075Z,29.88
2018-09-10T14:44:50.647Z,29.90
2018-09-10T14:47:22.469Z,29.72
2018-09-10T14:49:54.837Z,29.80
2018-09-10T14:52:26.606Z,29.84
2018-09-10T14:55:01.179Z,29.85
2018-09-10T14:57:33.120Z,29.87
2018-09-10T15:00:05.054Z,29.89
2018-09-10T15:02:36.624Z,29.83
2018-09-10T15:05:08.590Z,29.83
2018-09-10T15:07:40.178Z,29.77
2018-09-10T15:10:12.134Z,29.83
2018-09-10T15:12:43.910Z,29.87
2018-09-10T15:15:16.012Z,29.88
2018-09-10T15:17:47.925Z,29.76
2018-09-10T15:20:19.917Z,29.84
2018-09-10T15:22:51.926Z,29.85
2018-09-10T15:25:23.667Z,29.87
2018-09-10T15:27:55.431Z,29.81
2018-09-10T15:30:27.146Z,29.86
2018-09-10T15:32:58.895Z,29.85
2018-09-10T15:35:30.746Z,29.83
2018-09-10T15:38:02.578Z,29.89
2018-09-10T15:40:34.533Z,29.93
2018-09-10T15:43:06.367Z,29.96
2018-09-10T15:45:38.147Z,29.99
2018-09-10T15:48:09.897Z,30.00
2018-09-10T15:50:42.147Z,30.01
2018-09-10T15:53:14.018Z,30.02
2018-09-10T15:55:45.765Z,30.03
2018-09-10T15:58:17.514Z,30.07
2018-09-10T16:00:49.036Z,30.09
2018-09-10T16:03:21.881Z,30.08
2018-09-10T16:05:53.733Z,30.10
2018-09-10T16:08:25.420Z,30.12
2018-09-10T16:10:57.366Z,30.14
2018-09-10T16:13:29.052Z,30.15
2018-09-10T16:16:00.839Z,30.17
2018-09-10T16:18:32.479Z,30.11
2018-09-10T16:21:04.447Z,30.12
2018-09-10T16:23:36.337Z,30.11
2018-09-10T16:26:08.464Z,30.11
2018-09-10T16:28:40.359Z,30.10
2018-09-10T16:31:13.371Z,30.11
2018-09-10T16:33:45.264Z,30.10
2018-09-10T16:36:17.985Z,30.11
2018-09-10T16:38:50.942Z,30.11
2018-09-10T16:41:22.900Z,30.11
2018-09-10T16:43:54.930Z,30.11
2018-09-10T16:46:26.942Z,30.13
2018-09-10T16:48:58.975Z,30.16
2018-09-10T16:51:31.260Z,30.13
2018-09-10T16:54:03.790Z,30.13
2018-09-10T16:56:35.830Z,30.15
2018-09-10T16:59:07.788Z,30.14
2018-09-10T17:01:40.852Z,30.15
2018-09-10T17:04:12.696Z,30.10
2018-09-10T17:06:48.789Z,30.11
2018-09-10T17:09:21.207Z,30.11
2018-09-10T17:11:53.691Z,30.14
2018-09-10T17:14:25.986Z,30.15
2018-09-10T17:16:58.121Z,30.14
2018-09-10T17:19:29.851Z,30.13
2018-09-10T17:22:01.878Z,30.13
2018-09-10T17:24:33.927Z,30.14
2018-09-10T17:27:05.935Z,30.11
2018-09-10T17:29:37.837Z,30.11
2018-09-10T17:32:09.851Z,30.14
2018-09-10T17:34:42.162Z,30.16
2018-09-10T17:37:14.082Z,30.13
2018-09-10T17:39:46.734Z,30.15
2018-09-10T17:42:18.660Z,30.15
2018-09-10T17:44:51.356Z,30.12
2018-09-10T17:47:23.628Z,30.14
2018-09-10T17:49:55.934Z,30.15
2018-09-10T17:52:27.795Z,30.13
2018-09-10T17:54:59.605Z,30.11
2018-09-10T17:57:32.830Z,30.12
2018-09-10T18:00:04.589Z,30.15
2018-09-10T18:02:36.443Z,30.09
2018-09-10T18:05:08.173Z,30.10
2018-09-10T18:07:40.144Z,30.11
2018-09-10T18:10:12.202Z,30.14
2018-09-10T18:12:43.846Z,30.14
2018-09-10T18:15:15.678Z,30.15
2018-09-10T18:17:47.804Z,30.15
2018-09-10T18:20:19.434Z,30.15
2018-09-10T18:22:51.495Z,30.12
2018-09-10T18:25:23.475Z,30.11
2018-09-10T18:27:55.457Z,30.11
2018-09-10T18:30:30.612Z,30.14
2018-09-10T18:33:03.150Z,30.13
2018-09-10T18:35:35.007Z,30.13
2018-09-10T18:38:06.945Z,30.11
2018-09-10T18:40:38.873Z,30.13
2018-09-10T18:43:10.957Z,30.14
2018-09-10T18:45:43.660Z,30.12
2018-09-10T18:48:15.874Z,30.13
2018-09-10T18:50:48.838Z,30.10
2018-09-10T18:53:21.908Z,30.09
2018-09-10T18:55:53.594Z,30.09
2018-09-10T18:58:25.818Z,30.10
2018-09-10T19:00:57.961Z,30.10
2018-09-10T19:03:29.892Z,30.08
2018-09-10T19:06:01.685Z,30.05
2018-09-10T19:08:33.599Z,30.09
2018-09-10T19:11:05.495Z,30.06
2018-09-10T19:13:37.227Z,30.08
2018-09-10T19:16:09.198Z,30.09
2018-09-10T19:18:42.237Z,30.07
2018-09-10T19:21:13.980Z,30.05
2018-09-10T19:23:45.820Z,30.07
2018-09-10T19:26:17.569Z,30.07
2018-09-10T19:28:49.515Z,30.08
2018-09-10T19:31:21.401Z,30.08
2018-09-10T19:33:53.309Z,30.07
2018-09-10T19:36:25.184Z,30.07
2018-09-10T19:38:57.124Z,30.05
2018-09-10T19:41:29.060Z,30.05
2018-09-10T19:44:01.360Z,30.06
2018-09-10T19:46:33.273Z,30.04
2018-09-10T19:49:06.356Z,30.08
2018-09-10T19:51:38.035Z,30.08
2018-09-10T19:54:10.075Z,30.03
2018-09-10T19:56:41.992Z,30.04
2018-09-10T19:59:13.818Z,30.06
2018-09-10T20:01:46.372Z,30.05
2018-09-10T20:04:18.212Z,30.04
2018-09-10T20:06:50.246Z,30.06
2018-09-10T20:09:21.845Z,30.06
2018-09-10T20:11:53.606Z,30.05
2018-09-10T20:14:25.401Z,30.04
2018-09-10T20:16:57.099Z,30.06
2018-09-10T20:19:29.005Z,30.03
2018-09-10T20:22:00.787Z,30.03
2018-09-10T20:24:32.430Z,30.05
2018-09-10T20:27:04.130Z,30.04
2018-09-10T20:29:35.798Z,30.03
2018-09-10T20:32:07.835Z,30.04
2018-09-10T20:34:39.694Z,30.02
2018-09-10T20:37:11.341Z,30.01
2018-09-10T20:39:43.291Z,30.03
2018-09-10T20:42:15.314Z,30.02
2018-09-10T20:44:47.079Z,30.05
2018-09-10T20:47:18.845Z,30.00
2018-09-10T20:49:51.057Z,30.03
2018-09-10T20:52:22.757Z,30.02
2018-09-10T20:54:54.786Z,30.01
2018-09-10T20:57:26.939Z,30.03
2018-09-10T20:59:58.924Z,30.02
2018-09-10T21:02:30.813Z,30.03
2018-09-10T21:05:04.128Z,30.01
2018-09-10T21:07:36.065Z,30.02
2018-09-10T21:10:08.170Z,30.00
2018-09-10T21:12:39.963Z,30.00
2018-09-10T21:15:12.079Z,29.98
2018-09-10T21:17:43.936Z,29.97
2018-09-10T21:20:15.732Z,29.96
2018-09-10T21:22:47.764Z,29.97
2018-09-10T21:25:19.465Z,29.97
2018-09-10T21:27:51.188Z,29.96
2018-09-10T21:30:23.155Z,29.95
2018-09-10T21:32:54.964Z,29.95
2018-09-10T21:35:26.566Z,29.96
2018-09-10T21:37:58.682Z,30.00
2018-09-10T21:40:30.344Z,29.98
2018-09-10T21:43:02.148Z,29.98
2018-09-10T21:45:34.202Z,29.96
2018-09-10T21:48:05.794Z,29.96
2018-09-10T21:50:38.489Z,29.94
2018-09-10T21:53:10.002Z,29.95
2018-09-10T21:55:41.957Z,29.94
2018-09-10T21:58:13.761Z,29.94
2018-09-10T22:00:50.932Z,29.93
2018-09-10T22:03:22.624Z,29.91
2018-09-10T22:05:54.991Z,29.92
2018-09-10T22:08:26.830Z,29.93
2018-09-10T22:10:58.783Z,29.93
2018-09-10T22:13:30.684Z,29.89
2018-09-10T22:16:02.478Z,29.90
2018-09-10T22:18:34.267Z,29.92
2018-09-10T22:21:06.229Z,29.93
2018-09-10T22:23:38.095Z,29.92
2018-09-10T22:26:09.832Z,29.90
2018-09-10T22:28:41.518Z,29.90
2018-09-10T22:31:13.404Z,29.90
2018-09-10T22:33:45.465Z,29.93
2018-09-10T22:36:17.399Z,29.92
2018-09-10T22:38:49.050Z,29.90
2018-09-10T22:41:20.838Z,29.92
2018-09-10T22:43:52.352Z,29.90
2018-09-10T22:46:24.430Z,29.92
2018-09-10T22:48:56.156Z,29.92
2018-09-10T22:51:28.395Z,29.91
2018-09-10T22:54:00.074Z,29.89
2018-09-10T22:56:31.929Z,29.89
2018-09-10T22:59:03.802Z,29.87
2018-09-10T23:01:35.749Z,29.88
2018-09-10T23:04:07.562Z,29.87
2018-09-10T23:06:39.127Z,29.88
2018-09-10T23:09:11.116Z,29.86
2018-09-10T23:11:43.145Z,29.86
2018-09-10T23:14:14.701Z,29.86
2018-09-10T23:16:46.718Z,29.87
2018-09-10T23:19:18.515Z,29.87
2018-09-10T23:21:50.312Z,29.84
2018-09-10T23:24:22.218Z,29.87
2018-09-10T23:26:54.380Z,29.87
2018-09-10T23:29:26.253Z,29.84
2018-09-10T23:31:58.205Z,29.85
2018-09-10T23:34:30.045Z,29.84
2018-09-10T23:37:01.991Z,29.84
2018-09-10T23:39:33.769Z,29.83
2018-09-10T23:42:05.620Z,29.86
2018-09-10T23:44:37.631Z,29.84
2018-09-10T23:47:09.526Z,29.85
2018-09-10T23:49:41.244Z,29.81
2018-09-10T23:52:14.240Z,29.85
2018-09-10T23:54:45.868Z,29.85
2018-09-10T23:57:17.720Z,29.82
2018-09-10T23:59:49.437Z,29.85
